Time;durP1;ratioP1;P1;durP2;ratioP2;P2;SDS_P1;SDS_P2;PMS_P1;PMS_P2;Temp;Humidity;BMP_temperature;BMP_pressure;BME280_temperature;BME280_humidity;BME280_pressure;Samples;Min_cycle;Max_cycle;Signal;HPM_P1;HPM_P2
2023/10/25 00:10:49;;;;;;;;;;;;;;;;;;;;;
2023/10/25 00:14:05;;;;;;;;;;;;;;;;;;;;;
2023/10/25 00:16:44;;;;;;;19.60;17.60;;;;;;;52.98;8.43;98845.73;107477;1299;23106;-83
2023/10/25 00:19:57;;;;;;;20.90;18.60;;;;;;;52.99;8.53;98843.49;107250;1299;23703;-82
2023/10/25 00:23:20;;;;;;;;;;;;;;;;;;;;;
2023/10/25 00:26:03;;;;;;;20.70;18.50;;;;;;;53.09;8.47;98833.28;108407;1285;23734;-82
2023/10/25 00:28:58;;;;;;;20.70;18.70;;;;;;;52.80;8.64;98834.24;108481;1279;23769;-83
2023/10/25 00:32:15;;;;;;;26.10;19.80;;;;;;;52.68;8.70;98836.98;108449;1285;22003;-83
2023/10/25 00:35:10;;;;;;;21.10;18.80;;;;;;;52.98;8.52;98829.65;108507;1285;22541;-82
2023/10/25 00:42:23;;;;;;;28.40;22.30;;;;;;;52.98;8.57;98809.44;109256;1276;23815;-81
2023/10/25 00:50:22;;;;;;;;;;;;;;;;;;;;;
2023/10/25 00:56:53;;;;;;;27.70;25.00;;;;;;;52.66;8.82;98794.45;107956;1295;22007;-82
2023/10/25 01:00:02;;;;;;;;;;;;;;;;;;;;;
2023/10/25 01:03:39;;;;;;;30.20;26.20;;;;;;;52.53;8.80;98775.34;107537;1297;22003;-82
2023/10/25 01:06:18;;;;;;;28.40;25.60;;;;;;;52.63;8.79;98764.98;107428;1299;23171;-82
2023/10/25 01:09:56;;;;;;;27.40;24.50;;;;;;;52.39;8.94;98771.19;107210;1299;23859;-82
2023/10/25 01:24:30;;;;;;;26.50;24.00;;;;;;;51.57;9.59;98765.21;110445;1261;548001;-84
2023/10/25 01:28:12;;;;;;;27.90;25.40;;;;;;;53.23;8.41;98750.01;108175;1244;5456931;-84
2023/10/25 01:32:13;;;;;;;29.20;26.40;;;;;;;53.51;8.28;98745.25;112043;1248;23714;-83
2023/10/25 01:36:16;;;;;;;27.50;25.00;;;;;;;53.03;8.61;98741.73;112034;1248;21984;-84
2023/10/25 01:39:42;;;;;;;;;;;;;;;;;;;;;
2023/10/25 01:43:37;;;;;;;;;;;;;;;;;;;;;
2023/10/25 01:47:51;;;;;;;;;;;;;;;;;;;;;
2023/10/25 01:52:38;;;;;;;;;;;;;;;;;;;;;
2023/10/25 01:56:21;;;;;;;33.20;30.30;;;;;;;52.88;8.65;98751.78;111291;1256;21977;-82
2023/10/25 02:00:12;;;;;;;33.50;30.30;;;;;;;52.85;8.68;98746.24;110455;1266;23531;-83
2023/10/25 02:07:30;;;;;;;48.00;43.50;;;;;;;52.65;8.72;98747.36;109670;1270;24310;-82
2023/10/25 02:11:19;;;;;;;48.90;44.70;;;;;;;52.56;8.65;98749.94;110015;1270;22727;-82
2023/10/25 02:15:00;;;;;;;51.70;46.90;;;;;;;52.46;8.74;98750.77;109651;1270;21986;-82
2023/10/25 02:38:15;;;;;;;;;;;;;;;;;;;;;
2023/10/25 02:41:58;;;;;;;32.20;29.10;;;;;;;52.93;8.51;98738.85;110716;1260;21983;-82
2023/10/25 02:46:08;;;;;;;;;;;;;;;;;;;;;
2023/10/25 02:50:05;;;;;;;32.00;29.00;;;;;;;52.55;8.62;98740.80;108973;1281;21960;-83
2023/10/25 02:56:56;;;;;;;36.30;32.80;;;;;;;52.23;8.81;98744.56;108007;1293;23386;-83
2023/10/25 03:11:00;;;;;;;31.80;29.10;;;;;;;50.13;10.51;98742.30;108497;1282;557374;-82
2023/10/25 03:15:22;;;;;;;31.70;28.70;;;;;;;52.66;8.82;98733.13;105127;1272;21977;-83
2023/10/25 03:19:16;;;;;;;32.30;29.20;;;;;;;52.85;8.58;98733.90;109364;1275;23060;-83
2023/10/25 03:27:27;;;;;;;33.00;30.10;;;;;;;52.43;8.74;98740.77;108783;1283;21979;-83
2023/10/25 03:37:39;;;;;;;;;;;;;;;;;;;;;
2023/10/25 03:56:23;;;;;;;;;;;;;;;;;;;;;
2023/10/25 04:00:27;;;;;;;35.30;32.00;;;;;;;53.20;8.59;98744.90;109181;1239;21927;-83
2023/10/25 04:04:39;;;;;;;32.00;29.00;;;;;;;53.69;8.24;98748.35;111681;1252;21997;-82
2023/10/25 04:08:42;;;;;;;32.00;29.40;;;;;;;53.68;8.22;98750.25;111671;1252;23050;-83
2023/10/25 04:12:20;;;;;;;32.90;30.00;;;;;;;53.47;8.29;98754.61;111013;1259;21973;-82
2023/10/25 04:16:35;;;;;;;;;;;;;;;;;;;;;
2023/10/25 04:20:21;;;;;;;;;;;;;;;;;;;;;
2023/10/25 04:24:06;;;;;;;32.90;30.20;;;;;;;52.88;8.55;98757.18;110059;1264;23107;-81
2023/10/25 04:35:22;;;;;;;;;;;;;;;;;;;;;
2023/10/25 04:38:23;;;;;;;29.40;26.90;;;;;;;52.71;8.64;98761.98;110151;1266;21972;-82
2023/10/25 04:44:35;;;;;;;;;;;;;;;;;;;;;
2023/10/25 04:47:44;;;;;;;30.20;27.60;;;;;;;52.76;8.59;98755.13;110294;1260;22133;-82
2023/10/25 04:51:18;;;;;;;32.40;29.60;;;;;;;52.89;8.56;98762.37;110512;1264;22117;-81
2023/10/25 04:59:01;;;;;;;33.20;30.00;;;;;;;53.19;8.49;98768.82;111334;1255;22726;-81
2023/10/25 05:03:11;;;;;;;31.40;28.60;;;;;;;53.16;8.44;98769.91;111445;1255;21963;-82
2023/10/25 05:06:13;;;;;;;;;;;;;;;;;;;;;
2023/10/25 05:09:04;;;;;;;;;;;;;;;;;;;;;
2023/10/25 05:12:49;;;;;;;32.40;29.60;;;;;;;53.25;8.37;98782.90;111118;1257;23163;-82
2023/10/25 05:16:16;;;;;;;32.50;29.60;;;;;;;53.36;8.49;98786.77;111270;1256;23626;-82
2023/10/25 05:19:57;;;;;;;;;;;;;;;;;;;;;
2023/10/25 05:23:07;;;;;;;32.40;29.50;;;;;;;53.26;8.41;98789.92;110840;1260;22220;-83
2023/10/25 05:26:34;;;;;;;31.40;28.40;;;;;;;53.16;8.33;98797.06;110904;1260;22033;-84
2023/10/25 05:29:20;;;;;;;33.10;30.10;;;;;;;53.00;8.38;98798.88;110161;1266;22011;-83
2023/10/25 05:40:53;;;;;;;33.10;29.60;;;;;;;52.39;8.88;98813.52;107910;1294;549700;-82
2023/10/25 05:44:17;;;;;;;33.00;30.10;;;;;;;53.02;8.43;98810.71;109977;1269;23723;-82
2023/10/25 05:47:38;;;;;;;34.60;31.40;;;;;;;53.13;8.27;98811.77;110772;1261;21974;-82
2023/10/25 05:50:52;;;;;;;32.40;29.60;;;;;;;53.05;8.27;98818.90;110725;1261;23688;-81
2023/10/25 05:54:08;;;;;;;31.60;28.80;;;;;;;53.08;8.42;98825.39;104719;1259;8108155;-83
2023/10/25 05:57:49;;;;;;;;;;;;;;;;;;;;;
2023/10/25 06:00:58;;;;;;;;;;;;;;;;;;;;;
2023/10/25 06:04:34;;;;;;;34.20;31.10;;;;;;;52.92;8.49;98844.55;111028;1259;23044;-82
2023/10/25 06:08:11;;;;;;;36.80;33.30;;;;;;;53.14;8.36;98845.69;111037;1259;21960;-83
2023/10/25 06:12:21;;;;;;;35.40;31.90;;;;;;;53.14;8.48;98846.71;110608;1264;23125;-82
2023/10/25 06:16:11;;;;;;;34.20;31.00;;;;;;;53.02;8.44;98850.80;109309;1275;21983;-81
2023/10/25 06:22:55;;;;;;;37.20;33.60;;;;;;;52.79;8.44;98859.24;109065;1276;22008;-84
2023/10/25 06:26:24;;;;;;;37.80;33.20;;;;;;;52.91;8.19;98867.20;109103;1276;22763;-82
2023/10/25 06:29:52;;;;;;;;;;;;;;;;;;;;;
2023/10/25 06:33:08;;;;;;;;;;;;;;;;;;;;;
2023/10/25 06:36:21;;;;;;;39.70;35.80;;;;;;;52.91;8.46;98877.48;108727;1279;22010;-87
2023/10/25 06:39:44;;;;;;;37.70;33.60;;;;;;;52.67;8.63;98885.23;108635;1285;22032;-82
2023/10/25 06:42:44;;;;;;;40.20;36.20;;;;;;;52.70;8.56;98882.27;108621;1285;22105;-83
2023/10/25 06:50:10;;;;;;;36.80;33.20;;;;;;;52.97;8.47;98875.16;108293;1291;22025;-83
2023/10/25 06:53:14;;;;;;;;;;;;;;;;;;;;;
2023/10/25 06:55:53;;;;;;;37.70;32.70;;;;;;;52.49;8.61;98885.30;108421;1286;21998;-84
2023/10/25 06:58:37;;;;;;;;;;;;;;;;;;;;;
2023/10/25 07:03:02;;;;;;;;;;;;;;;;;;;;;
2023/10/25 07:06:19;;;;;;;37.30;33.60;;;;;;;52.78;8.38;98890.02;109145;1277;21989;-83
2023/10/25 07:10:04;;;;;;;38.80;34.90;;;;;;;52.67;8.46;98897.81;108703;1283;21987;-82
2023/10/25 07:24:01;;;;;;;;;;;;;;;;;;;;;
2023/10/25 07:27:20;;;;;;;33.80;30.30;;;;;;;52.68;8.62;98919.01;108554;1259;3157052;-83
2023/10/25 07:30:20;;;;;;;32.60;29.40;;;;;;;53.30;8.43;98915.86;110999;1259;21982;-82
2023/10/25 07:33:13;;;;;;;35.40;31.60;;;;;;;53.16;8.32;98913.54;110339;1265;21995;-82
2023/10/25 07:36:03;;;;;;;32.50;29.20;;;;;;;52.97;8.32;98919.58;109987;1262;21984;-81
2023/10/25 07:38:52;;;;;;;33.70;30.20;;;;;;;52.74;8.41;98921.14;110039;1269;24496;-83
2023/10/25 07:41:53;;;;;;;33.30;29.70;;;;;;;52.62;8.63;98919.61;109362;1274;22066;-83
2023/10/25 07:44:46;;;;;;;37.10;33.20;;;;;;;52.74;8.63;98920.61;109254;1274;23134;-82
2023/10/25 07:47:49;;;;;;;40.80;36.60;;;;;;;52.72;8.40;98921.85;109388;1274;23600;-82
2023/10/25 07:50:27;;;;;;;36.70;33.10;;;;;;;52.60;8.43;98923.81;109475;1267;23751;-82
2023/10/25 07:53:47;;;;;;;37.50;33.70;;;;;;;52.55;8.56;98920.77;109359;1261;23088;-82
2023/10/25 07:57:02;;;;;;;37.60;33.80;;;;;;;52.61;8.58;98923.59;110177;1268;22004;-83
2023/10/25 07:59:58;;;;;;;37.50;31.90;;;;;;;52.80;8.35;98922.11;110421;1262;22014;-82
2023/10/25 08:02:58;;;;;;;39.70;35.40;;;;;;;52.57;8.54;98927.89;110632;1262;22082;-81
2023/10/25 08:05:53;;;;;;;38.90;32.20;;;;;;;52.52;8.33;98930.28;110924;1261;23605;-84
2023/10/25 08:09:01;;;;;;;37.20;33.50;;;;;;;52.36;8.65;98933.90;110828;1262;21977;-84
2023/10/25 08:11:56;;;;;;;37.70;33.90;;;;;;;52.59;8.71;98931.59;110633;1264;22878;-84
2023/10/25 08:14:47;;;;;;;40.90;36.60;;;;;;;52.63;8.46;98932.13;110374;1264;23710;-84
2023/10/25 08:17:53;;;;;;;42.50;38.40;;;;;;;52.68;8.73;98933.57;110626;1263;21965;-83
2023/10/25 08:20:53;;;;;;;38.10;34.30;;;;;;;52.65;8.60;98934.72;110557;1264;22743;-85
2023/10/25 08:24:10;;;;;;;;;;;;;;;;;;;;;
2023/10/25 08:28:13;;;;;;;32.40;29.20;;;;;;;52.63;8.44;98934.76;110173;1268;21980;-84
2023/10/25 08:31:52;;;;;;;;;;;;;;;;;;;;;
2023/10/25 08:38:17;;;;;;;;;;;;;;;;;;;;;
2023/10/25 08:41:36;;;;;;;27.30;24.60;;;;;;;52.84;8.63;98934.11;108888;1283;22004;-84
2023/10/25 08:44:59;;;;;;;25.40;22.90;;;;;;;52.73;8.64;98935.55;108875;1283;22000;-83
2023/10/25 08:47:50;;;;;;;25.20;22.90;;;;;;;53.05;8.60;98935.05;109023;1270;22023;-84
2023/10/25 08:50:58;;;;;;;21.80;19.80;;;;;;;53.11;8.49;98933.70;109452;1272;23624;-84
2023/10/25 08:54:09;;;;;;;23.60;21.10;;;;;;;53.16;8.14;98933.94;110239;1268;22745;-83
2023/10/25 08:57:10;;;;;;;19.60;17.80;;;;;;;53.26;8.17;98935.58;110605;1265;21974;-83
2023/10/25 09:00:38;;;;;;;;;;;;;;;;;;;;;
2023/10/25 09:03:47;;;;;;;22.50;20.20;;;;;;;53.36;8.36;98945.98;110534;1265;21970;-83
2023/10/25 09:06:45;;;;;;;24.50;22.00;;;;;;;53.52;8.34;98949.77;110304;1265;24950;-84
2023/10/25 09:09:45;;;;;;;25.90;23.50;;;;;;;53.52;8.16;98954.05;110621;1257;24349;-84
2023/10/25 09:12:56;;;;;;;27.60;24.80;;;;;;;53.56;8.31;98952.76;111279;1257;23132;-84
2023/10/25 09:15:37;;;;;;;29.70;26.80;;;;;;;53.43;8.13;98952.74;111107;1256;21980;-83
2023/10/25 09:18:18;;;;;;;33.00;29.60;;;;;;;53.13;8.33;98953.64;110704;1263;21917;-86
2023/10/25 09:20:52;;;;;;;31.20;28.10;;;;;;;52.91;8.33;98953.86;110678;1263;22980;-82
2023/10/25 09:23:56;;;;;;;27.40;23.90;;;;;;;53.10;8.21;98950.64;110975;1263;21950;-83
2023/10/25 09:26:43;;;;;;;25.10;22.70;;;;;;;53.20;8.26;98952.70;110503;1263;22252;-83
2023/10/25 09:29:30;;;;;;;27.30;24.60;;;;;;;53.06;8.43;98950.76;110814;1263;21984;-83
2023/10/25 09:32:13;;;;;;;26.40;23.80;;;;;;;53.08;8.25;98955.71;111006;1263;21997;-83
2023/10/25 09:35:10;;;;;;;28.90;26.00;;;;;;;53.19;8.33;98960.16;109980;1270;21988;-82
2023/10/25 09:38:05;;;;;;;;;;;;;;;;;;;;;
2023/10/25 09:41:50;;;;;;;29.70;26.80;;;;;;;53.51;8.13;98955.40;110568;1264;22024;-84
2023/10/25 09:45:10;;;;;;;33.60;30.10;;;;;;;53.76;8.05;98950.52;110509;1264;24055;-83
2023/10/25 09:47:52;;;;;;;34.00;30.30;;;;;;;53.57;8.18;98952.84;110370;1264;22005;-84
2023/10/25 17:48:50;;;;;;;18.70;16.90;;;;;;;53.49;7.61;98882.31;111270;1257;22692;-82
2023/10/25 17:51:22;;;;;;;18.80;17.00;;;;;;;53.22;7.88;98887.91;111217;1257;21992;-83
2023/10/25 17:53:57;;;;;;;18.10;16.40;;;;;;;52.79;8.14;98894.96;111448;1257;21970;-84
2023/10/25 17:56:26;;;;;;;22.50;20.20;;;;;;;52.78;7.98;98891.77;111392;1257;22173;-84
2023/10/25 17:58:58;;;;;;;;;;;;;;;52.65;8.10;98894.05;110562;1262;21990;-82
2023/10/25 18:01:27;;;;;;;23.50;21.00;;;;;;;52.96;7.85;98889.96;110774;1262;21942;-82
2023/10/25 18:03:57;;;;;;;26.70;24.00;;;;;;;52.71;8.01;98893.27;110674;1262;21994;-84
2023/10/25 18:06:27;;;;;;;25.80;23.30;;;;;;;52.60;7.90;98890.39;111001;1262;22951;-84
2023/10/25 18:09:08;;;;;;;26.50;23.70;;;;;;;52.75;7.80;98884.58;110527;1262;21966;-83
2023/10/25 18:11:37;;;;;;;28.50;25.50;;;;;;;52.55;8.09;98884.03;111029;1262;22452;-86
2023/10/25 18:14:07;;;;;;;29.80;26.70;;;;;;;52.48;7.92;98882.73;111025;1262;21967;-84
2023/10/25 18:16:38;;;;;;;34.00;28.30;;;;;;;52.52;8.15;98885.48;110800;1256;23609;-86
2023/10/25 18:19:08;;;;;;;29.90;26.90;;;;;;;52.35;7.82;98892.38;111064;1259;21972;-83
2023/10/25 18:21:37;;;;;;;32.90;28.70;;;;;;;52.21;7.98;98893.67;109979;1268;22107;-83
2023/10/25 18:24:08;;;;;;;28.60;25.70;;;;;;;52.02;8.05;98894.77;110378;1269;23058;-85
2023/10/25 18:26:38;;;;;;;27.50;24.50;;;;;;;52.00;7.98;98892.68;109934;1269;23733;-83
2023/10/25 18:29:08;;;;;;;26.50;23.70;;;;;;;51.92;8.02;98892.62;109922;1267;21982;-84
2023/10/25 18:31:39;;;;;;;28.50;24.80;;;;;;;51.91;8.14;98894.50;110045;1268;21995;-85
2023/10/25 18:34:29;;;;;;;24.90;22.40;;;;;;;52.10;8.19;98890.15;109911;1269;21680;-84
2023/10/25 18:37:01;;;;;;;22.70;20.50;;;;;;;51.94;8.12;98890.34;110037;1269;21996;-83
2023/10/25 18:39:31;;;;;;;22.30;20.00;;;;;;;51.81;8.16;98891.67;110547;1248;21967;-82
2023/10/25 18:42:02;;;;;;;22.10;19.80;;;;;;;51.69;8.26;98887.10;111386;1261;21961;-84
2023/10/25 18:44:38;;;;;;;25.00;22.60;;;;;;;51.66;8.34;98885.77;110675;1267;23643;-85
2023/10/25 18:47:08;;;;;;;26.50;23.90;;;;;;;51.71;8.43;98885.48;110582;1267;21981;-85
2023/10/25 18:49:40;;;;;;;26.40;24.00;;;;;;;51.68;8.21;98886.37;110187;1268;22003;-85
2023/10/25 18:52:10;;;;;;;31.60;28.40;;;;;;;51.68;8.14;98883.50;109711;1271;22109;-84
2023/10/25 18:54:40;;;;;;;30.10;27.20;;;;;;;51.81;8.10;98881.85;109720;1271;23027;-83
2023/10/25 18:57:09;;;;;;;32.70;29.40;;;;;;;51.86;7.97;98884.55;109972;1271;22056;-85
2023/10/25 18:59:38;;;;;;;32.00;28.00;;;;;;;51.80;8.02;98882.15;109632;1271;23102;-82
2023/10/25 19:02:07;;;;;;;33.40;28.80;;;;;;;51.59;8.10;98880.65;109826;1267;23631;-82
2023/10/25 19:04:36;;;;;;;33.90;29.70;;;;;;;51.47;8.12;98881.13;110265;1267;21990;-86
2023/10/25 19:07:26;;;;;;;41.10;31.20;;;;;;;51.51;8.03;98878.20;110370;1266;22711;-84
2023/10/25 19:09:55;;;;;;;32.90;29.40;;;;;;;51.58;8.05;98881.70;110567;1262;22490;-85
2023/10/25 19:12:48;;;;;;;30.50;27.20;;;;;;;51.69;7.94;98877.81;111038;1262;21969;-85
2023/10/25 19:15:18;;;;;;;36.40;32.60;;;;;;;51.56;7.94;98876.69;110554;1268;23618;-84
2023/10/25 19:17:47;;;;;;;31.20;27.80;;;;;;;51.36;7.97;98878.13;110438;1267;23871;-83
2023/10/25 19:20:18;;;;;;;27.70;25.20;;;;;;;51.12;8.07;98883.35;110037;1267;22069;-84
2023/10/25 19:22:49;;;;;;;29.30;26.50;;;;;;;51.01;8.14;98885.48;109592;1273;21990;-85
2023/10/25 19:25:21;;;;;;;30.30;27.20;;;;;;;50.91;8.05;98885.27;108507;1277;3135313;-86
2023/10/25 19:27:50;;;;;;;29.90;26.80;;;;;;;51.00;8.12;98883.49;109534;1277;22009;-84
2023/10/25 19:30:23;;;;;;;30.90;27.70;;;;;;;51.02;7.94;98882.42;109362;1276;22035;-86
2023/10/25 19:32:53;;;;;;;30.00;26.80;;;;;;;50.99;8.07;98878.38;109181;1279;21989;-85
2023/10/25 19:35:22;;;;;;;32.40;28.90;;;;;;;50.93;8.23;98878.00;108861;1283;23541;-85
2023/10/25 19:37:54;;;;;;;37.00;33.30;;;;;;;50.96;8.11;98874.83;108885;1284;22010;-84
2023/10/25 19:40:24;;;;;;;34.60;31.10;;;;;;;50.95;8.18;98868.79;108933;1279;21990;-84
2023/10/25 19:42:53;;;;;;;35.30;31.90;;;;;;;50.72;8.35;98866.58;108942;1278;23746;-85
2023/10/25 19:45:22;;;;;;;42.60;38.00;;;;;;;50.87;8.20;98862.48;109111;1283;24608;-84
2023/10/25 19:47:52;;;;;;;42.50;37.70;;;;;;;50.87;8.16;98863.17;109002;1283;22129;-83
2023/10/25 19:50:22;;;;;;;50.70;45.50;;;;;;;50.84;8.07;98859.56;109033;1283;23199;-83
2023/10/25 19:52:52;;;;;;;73.40;65.60;;;;;;;50.86;7.98;98857.23;108851;1285;21991;-84
2023/10/25 19:55:21;;;;;;;58.80;52.70;;;;;;;50.82;8.23;98854.75;108857;1283;22551;-82
2023/10/25 19:57:51;;;;;;;51.60;45.80;;;;;;;50.74;8.36;98854.67;108619;1284;23062;-82
2023/10/25 20:00:20;;;;;;;55.40;47.10;;;;;;;50.63;8.19;98855.30;108795;1276;22002;-81
2023/10/25 20:02:50;;;;;;;51.90;45.40;;;;;;;50.59;8.38;98855.52;109247;1272;21981;-82
2023/10/25 20:05:21;;;;;;;55.60;48.30;;;;;;;50.51;8.32;98855.02;109461;1271;22093;-81
2023/10/25 20:07:50;;;;;;;83.50;61.60;;;;;;;50.54;8.26;98855.48;109572;1271;23779;-82
2023/10/25 20:10:19;;;;;;;134.60;95.40;;;;;;;50.64;8.23;98854.19;109577;1264;23051;-82
2023/10/25 20:12:51;;;;;;;155.60;126.50;;;;;;;50.55;8.18;98856.54;109928;1270;22037;-80
2023/10/25 20:15:21;;;;;;;137.20;103.10;;;;;;;50.49;8.32;98855.67;109660;1266;21993;-87
2023/10/25 20:18:03;;;;;;;98.70;73.10;;;;;;;50.37;8.28;98860.54;110753;1266;21969;-81
2023/10/25 20:21:42;;;;;;;61.80;51.90;;;;;;;50.35;8.28;98852.09;110312;1270;21996;-80
2023/10/25 20:24:31;;;;;;;81.70;64.80;;;;;;;50.29;8.45;98852.04;110185;1267;21983;-83
2023/10/25 20:27:35;;;;;;;;;;;;;;;;;;;;;
2023/10/25 20:30:31;;;;;;;63.20;54.70;;;;;;;50.62;8.42;98851.55;109561;1273;22860;-82
2023/10/25 20:33:42;;;;;;;65.70;57.80;;;;;;;50.75;8.44;98852.79;109849;1264;22154;-84
2023/10/25 20:36:22;;;;;;;76.10;62.40;;;;;;;50.60;8.48;98852.77;109584;1271;22002;-81
2023/10/25 20:39:12;;;;;;;72.20;62.30;;;;;;;50.55;8.45;98853.29;109474;1276;21991;-78
2023/10/25 20:42:00;;;;;;;81.20;66.80;;;;;;;50.55;8.38;98853.22;108896;1278;24029;-80
2023/10/25 20:49:04;;;;;;;87.50;53.10;;;;;;;50.72;8.00;98847.65;109184;1288;23580;-78
2023/10/25 20:51:51;;;;;;;93.70;54.00;;;;;;;50.51;8.37;98846.92;108348;1284;22016;-80
2023/10/25 20:54:38;;;;;;;78.40;56.20;;;;;;;50.41;8.49;98841.77;108673;1284;22484;-80
2023/10/25 20:57:15;;;;;;;75.50;59.90;;;;;;;50.40;8.59;98843.25;108878;1281;22056;-79
2023/10/25 21:00:00;;;;;;;82.00;61.30;;;;;;;50.32;8.55;98839.42;108906;1279;22000;-80
2023/10/25 21:02:36;;;;;;;85.20;63.90;;;;;;;50.47;8.50;98836.91;109220;1270;23049;-81
2023/10/25 21:05:18;;;;;;;80.30;56.10;;;;;;;50.41;8.34;98835.20;109085;1279;23741;-81
2023/10/25 21:07:53;;;;;;;79.60;55.40;;;;;;;50.42;8.37;98831.73;109112;1279;22009;-80
2023/10/25 21:10:37;;;;;;;79.30;50.20;;;;;;;50.45;8.36;98837.73;108922;1274;22749;-79
2023/10/25 21:13:19;;;;;;;67.60;45.50;;;;;;;50.42;8.29;98830.88;108823;1283;21785;-80
2023/10/25 21:16:23;;;;;;;70.60;47.10;;;;;;;50.45;8.18;98828.16;108538;1289;23784;-80
2023/10/25 21:19:02;;;;;;;58.90;46.40;;;;;;;50.35;8.33;98824.58;108115;1288;23017;-80
2023/10/25 21:21:33;;;;;;;50.60;40.60;;;;;;;50.08;8.50;98829.15;108270;1292;22165;-81
2023/10/25 21:24:04;;;;;;;70.80;41.30;;;;;;;49.84;8.42;98826.58;108011;1292;22013;-80
2023/10/25 21:26:59;;;;;;;53.80;41.50;;;;;;;49.05;8.93;98832.47;108183;1281;544455;-81
2023/10/25 21:29:30;;;;;;;62.80;46.10;;;;;;;49.69;8.70;98827.52;110599;1262;21996;-80
2023/10/25 21:32:07;;;;;;;64.30;46.00;;;;;;;49.76;8.57;98826.38;110324;1262;21991;-80
2023/10/25 21:34:47;;;;;;;63.20;47.50;;;;;;;49.72;8.61;98826.91;111125;1262;23595;-79
2023/10/25 21:37:30;;;;;;;67.40;44.40;;;;;;;49.59;8.67;98825.70;110733;1262;21997;-80
2023/10/25 21:40:05;;;;;;;61.50;40.80;;;;;;;49.57;8.66;98821.04;108139;1260;3177562;-79
2023/10/25 21:42:47;;;;;;;57.40;44.90;;;;;;;49.49;8.68;98817.65;111113;1260;24177;-79
2023/10/25 21:45:57;;;;;;;54.50;42.90;;;;;;;49.57;8.61;98816.27;111034;1261;23652;-80
2023/10/25 21:48:37;;;;;;;54.30;41.80;;;;;;;49.59;8.65;98813.02;110975;1261;23672;-79
2023/10/25 21:51:25;;;;;;;50.90;39.90;;;;;;;49.46;8.62;98803.10;110556;1261;21974;-80
2023/10/25 21:54:28;;;;;;;60.30;41.50;;;;;;;49.45;8.57;98794.11;110893;1256;22760;-80
2023/10/25 21:57:04;;;;;;;57.10;39.60;;;;;;;49.44;8.55;98796.16;110829;1261;23049;-79
2023/10/25 21:59:34;;;;;;;48.20;38.40;;;;;;;49.53;8.67;98788.63;110628;1264;21989;-80
2023/10/25 22:02:28;;;;;;;69.20;41.50;;;;;;;49.67;8.49;98789.73;110703;1263;22283;-81
2023/10/25 22:05:07;;;;;;;65.40;40.40;;;;;;;49.52;8.38;98789.95;110942;1260;21992;-81
2023/10/25 22:08:05;;;;;;;90.90;36.90;;;;;;;49.25;8.45;98789.21;110985;1260;23802;-81
2023/10/25 22:10:52;;;;;;;74.80;36.40;;;;;;;48.97;8.49;98789.00;110378;1265;23077;-81
2023/10/25 22:16:22;;;;;;;82.70;33.70;;;;;;;48.63;8.74;98786.41;110475;1265;21977;-80
2023/10/25 22:19:18;;;;;;;72.10;33.70;;;;;;;48.42;8.83;98792.41;110271;1265;22018;-80
2023/10/25 22:22:02;;;;;;;59.10;33.20;;;;;;;48.62;8.82;98791.06;110383;1258;24314;-80
2023/10/25 22:24:43;;;;;;;59.50;33.70;;;;;;;48.80;8.88;98788.83;110324;1260;23618;-80
2023/10/25 22:27:28;;;;;;;49.20;33.30;;;;;;;48.91;8.64;98782.96;110687;1260;23714;-79
2023/10/25 22:30:18;;;;;;;53.20;32.10;;;;;;;48.95;8.81;98779.98;111306;1255;22267;-78
2023/10/25 22:33:01;;;;;;;47.10;30.10;;;;;;;49.03;8.66;98776.19;111393;1255;22992;-80
2023/10/25 22:35:42;;;;;;;35.60;27.40;;;;;;;49.03;8.50;98769.92;111145;1255;21975;-81
2023/10/25 22:38:29;;;;;;;33.00;27.80;;;;;;;48.97;8.43;98762.64;111299;1255;21970;-80
2023/10/25 22:41:29;;;;;;;33.70;29.70;;;;;;;48.94;8.44;98763.98;110988;1260;21955;-80
2023/10/25 22:44:15;;;;;;;35.10;30.30;;;;;;;49.00;8.56;98760.58;110983;1260;22005;-82
2023/10/25 22:50:02;;;;;;;34.30;30.90;;;;;;;49.33;8.39;98764.29;110943;1260;24966;-79
2023/10/25 22:52:41;;;;;;;57.60;31.20;;;;;;;49.14;8.47;98766.59;110743;1258;22014;-79
2023/10/25 22:55:37;;;;;;;50.90;29.00;;;;;;;48.81;8.41;98764.56;110659;1260;21944;-79
2023/10/25 22:58:25;;;;;;;46.40;29.40;;;;;;;48.67;8.38;98757.98;110681;1260;21956;-79
2023/10/25 23:01:02;;;;;;;38.90;31.60;;;;;;;48.46;8.38;98756.48;110607;1260;23066;-80
2023/10/25 23:04:06;;;;;;;52.10;33.20;;;;;;;48.51;8.53;98753.94;110899;1259;21969;-78
2023/10/25 23:06:51;;;;;;;42.20;33.30;;;;;;;48.44;8.46;98758.23;111221;1255;21957;-80
2023/10/25 23:09:43;;;;;;;37.10;32.90;;;;;;;48.42;8.67;98753.18;111077;1259;21991;-80
2023/10/25 23:12:32;;;;;;;46.40;34.00;;;;;;;48.62;8.70;98744.00;110687;1258;24411;-79
2023/10/25 23:15:27;;;;;;;39.90;35.60;;;;;;;48.75;8.55;98739.56;110723;1258;21996;-80
2023/10/25 23:18:08;;;;;;;39.40;35.30;;;;;;;48.86;8.40;98734.47;110835;1258;23689;-80
2023/10/25 23:20:57;;;;;;;40.80;36.50;;;;;;;48.86;8.44;98728.00;110949;1254;21975;-79
2023/10/25 23:23:31;;;;;;;39.90;35.60;;;;;;;49.04;8.48;98724.70;110902;1251;22260;-81
2023/10/25 23:26:11;;;;;;;53.80;34.30;;;;;;;49.04;8.53;98722.41;110385;1266;22099;-79
2023/10/25 23:28:51;;;;;;;51.70;36.70;;;;;;;49.03;8.36;98724.11;110754;1261;21968;-79
2023/10/25 23:31:24;;;;;;;86.00;38.70;;;;;;;48.75;8.31;98725.14;110364;1267;23628;-79
2023/10/25 23:34:50;;;;;;;83.50;37.00;;;;;;;48.58;8.43;98724.58;110330;1266;21998;-80
2023/10/25 23:37:38;;;;;;;71.60;38.50;;;;;;;48.34;8.45;98723.70;110594;1257;21987;-80
2023/10/25 23:40:29;;;;;;;49.80;37.90;;;;;;;48.18;8.49;98717.59;110545;1263;21974;-78
2023/10/25 23:43:14;;;;;;;54.50;37.20;;;;;;;48.31;8.67;98709.16;110368;1266;22156;-78
2023/10/25 23:46:08;;;;;;;42.00;37.20;;;;;;;48.57;8.61;98704.70;110267;1267;21973;-79
2023/10/25 23:48:51;;;;;;;57.00;40.00;;;;;;;48.65;8.63;98698.60;110305;1264;23634;-79
2023/10/25 23:51:30;;;;;;;58.60;38.80;;;;;;;48.66;8.54;98696.20;110558;1260;22067;-79
2023/10/25 23:54:11;;;;;;;45.50;37.10;;;;;;;48.65;8.54;98689.98;110676;1263;23840;-80
2023/10/25 23:58:11;;;;;;;48.10;38.50;;;;;;;48.79;8.53;98679.96;110802;1258;21969;-79
